Time;durP1;ratioP1;P1;durP2;ratioP2;P2;SDS_P1;SDS_P2;PMS_P1;PMS_P2;Temp;Humidity;BMP_temperature;BMP_pressure;BME280_temperature;BME280_humidity;BME280_pressure;Samples;Min_cycle;Max_cycle;Signal;HPM_P1;HPM_P2
2021/11/13 00:01:45;;;;;;;21.63;15.60;;;;;;;;;;5092760;28;20016;-69
2021/11/13 00:04:10;;;;;;;21.07;15.20;;;;;;;;;;5090933;28;20048;-68
2021/11/13 00:06:35;;;;;;;20.53;16.00;;;;;;;;;;5091260;28;20031;-68
2021/11/13 00:09:01;;;;;;;23.43;16.10;;;;;;;;;;5085394;28;20095;-68
2021/11/13 00:11:26;;;;;;;20.07;15.23;;;;;;;;;;5088664;28;20028;-68
2021/11/13 00:13:52;;;;;;;22.53;16.37;;;;;;;;;;5072695;28;20032;-68
2021/11/13 00:16:17;;;;;;;20.27;15.73;;;;;;;;;;5070005;28;20031;-68
2021/11/13 00:18:43;;;;;;;19.67;15.23;;;;;;;;;;5071503;28;20235;-68
2021/11/13 00:21:10;;;;;;;18.60;14.60;;;;;;;;;;5094550;28;20020;-68
2021/11/13 00:23:35;;;;;;;17.03;12.23;;;;;;;;;;5078664;28;20556;-68
2021/11/13 00:26:00;;;;;;;16.07;13.33;;;;;;;;;;5071194;28;20108;-68
2021/11/13 00:28:26;;;;;;;18.60;12.73;;;;;;;;;;5069984;28;20063;-68
2021/11/13 00:30:51;;;;;;;18.60;13.70;;;;;;;;;;5086484;28;20077;-68
2021/11/13 00:33:16;;;;;;;20.80;14.03;;;;;;;;;;5111677;28;20081;-69
2021/11/13 00:35:42;;;;;;;19.80;13.90;;;;;;;;;;5101070;28;20081;-69
2021/11/13 00:38:07;;;;;;;21.73;15.10;;;;;;;;;;5093326;28;20456;-69
2021/11/13 00:40:32;;;;;;;18.77;14.13;;;;;;;;;;5079494;28;20050;-69
2021/11/13 00:42:57;;;;;;;21.80;15.03;;;;;;;;;;5096295;28;20077;-68
2021/11/13 00:45:22;;;;;;;21.80;15.40;;;;;;;;;;5093958;28;20070;-69
2021/11/13 00:47:48;;;;;;;24.73;15.50;;;;;;;;;;5094758;28;20027;-69
2021/11/13 00:50:13;;;;;;;20.38;14.63;;;;;;;;;;5090924;28;20036;-68
2021/11/13 00:52:39;;;;;;;20.90;14.88;;;;;;;;;;5082248;28;20484;-68
2021/11/13 00:55:04;;;;;;;19.73;13.07;;;;;;;;;;5094570;28;20102;-68
2021/11/13 00:57:30;;;;;;;20.13;14.30;;;;;;;;;;5094290;28;20020;-68
2021/11/13 00:59:55;;;;;;;19.17;12.93;;;;;;;;;;5092714;28;20031;-68
2021/11/13 01:02:20;;;;;;;17.83;11.95;;;;;;;;;;5083941;28;20032;-68
2021/11/13 01:04:45;;;;;;;16.13;11.45;;;;;;;;;;5090577;28;20487;-68
2021/11/13 01:07:11;;;;;;;14.35;10.98;;;;;;;;;;5114143;27;20051;-68
2021/11/13 01:09:36;;;;;;;16.52;10.57;;;;;;;;;;5101928;28;20381;-68
2021/11/13 01:12:01;;;;;;;15.48;10.88;;;;;;;;;;5086155;27;20544;-68
2021/11/13 01:14:28;;;;;;;17.20;11.77;;;;;;;;;;5093918;28;20077;-68
2021/11/13 01:16:53;;;;;;;14.93;10.85;;;;;;;;;;5094395;28;20016;-68
2021/11/13 01:19:18;;;;;;;15.82;11.73;;;;;;;;;;5094489;28;20034;-68
2021/11/13 01:21:44;;;;;;;16.13;11.77;;;;;;;;;;5087496;28;22010;-68
2021/11/13 01:24:09;;;;;;;21.15;12.88;;;;;;;;;;5092692;28;20024;-68
2021/11/13 01:26:35;;;;;;;16.30;11.70;;;;;;;;;;5090063;28;20031;-68
2021/11/13 01:29:00;;;;;;;17.23;12.30;;;;;;;;;;5102628;28;20114;-68
2021/11/13 01:31:25;;;;;;;16.58;11.13;;;;;;;;;;5082493;28;20416;-68
2021/11/13 01:33:50;;;;;;;15.45;10.43;;;;;;;;;;5092298;28;20099;-68
2021/11/13 01:36:15;;;;;;;17.33;10.77;;;;;;;;;;5087916;28;20067;-68
2021/11/13 01:38:41;;;;;;;18.77;13.03;;;;;;;;;;5093691;28;20076;-68
2021/11/13 01:41:07;;;;;;;16.55;11.90;;;;;;;;;;5092984;28;20021;-68
2021/11/13 01:43:34;;;;;;;18.33;12.30;;;;;;;;;;5088667;28;20146;-68
2021/11/13 01:46:03;;;;;;;16.33;11.90;;;;;;;;;;5084801;28;20024;-68
2021/11/13 01:48:29;;;;;;;16.63;11.60;;;;;;;;;;5093947;28;20024;-68
2021/11/13 01:50:55;;;;;;;15.90;11.73;;;;;;;;;;5071969;28;20025;-68
2021/11/13 01:53:20;;;;;;;15.53;10.50;;;;;;;;;;5074964;28;20063;-68
2021/11/13 01:55:45;;;;;;;18.33;11.13;;;;;;;;;;5079652;28;20072;-68
2021/11/13 01:58:12;;;;;;;16.70;11.60;;;;;;;;;;5093417;28;20020;-67
2021/11/13 02:00:48;;;;;;;15.93;10.95;;;;;;;;;;5088031;28;20472;-68
2021/11/13 02:03:13;;;;;;;15.05;10.93;;;;;;;;;;5095201;28;20263;-68
2021/11/13 02:05:39;;;;;;;15.33;11.40;;;;;;;;;;5094882;28;20759;-68
2021/11/13 02:08:04;;;;;;;16.80;11.60;;;;;;;;;;5092783;28;20016;-68
2021/11/13 02:10:30;;;;;;;18.67;11.50;;;;;;;;;;5105560;28;20027;-68
2021/11/13 02:12:56;;;;;;;14.57;11.13;;;;;;;;;;5112067;28;20073;-68
2021/11/13 02:15:22;;;;;;;18.02;11.68;;;;;;;;;;5094947;28;20028;-68
2021/11/13 02:17:48;;;;;;;14.70;10.53;;;;;;;;;;5090043;28;20128;-68
2021/11/13 02:20:15;;;;;;;14.57;10.40;;;;;;;;;;5093327;28;20128;-68
2021/11/13 02:22:41;;;;;;;14.77;10.37;;;;;;;;;;5078677;28;20024;-68
2021/11/13 02:25:06;;;;;;;14.57;10.73;;;;;;;;;;5091121;28;20385;-68
2021/11/13 02:27:31;;;;;;;14.27;10.57;;;;;;;;;;5081848;28;20488;-68
2021/11/13 02:29:56;;;;;;;14.90;10.57;;;;;;;;;;5091848;28;20056;-68
2021/11/13 02:32:22;;;;;;;15.05;10.68;;;;;;;;;;5090011;28;20106;-68
2021/11/13 02:34:47;;;;;;;15.37;10.77;;;;;;;;;;5091731;28;20426;-67
2021/11/13 02:37:12;;;;;;;15.20;9.60;;;;;;;;;;5090979;28;20547;-67
2021/11/13 02:39:37;;;;;;;13.50;9.27;;;;;;;;;;5094830;28;20433;-67
2021/11/13 02:42:03;;;;;;;13.73;8.30;;;;;;;;;;5092170;28;20026;-67
2021/11/13 02:44:28;;;;;;;12.13;8.95;;;;;;;;;;5092867;28;20131;-67
2021/11/13 02:46:53;;;;;;;13.20;9.30;;;;;;;;;;5092006;28;20469;-67
2021/11/13 02:49:19;;;;;;;14.53;10.37;;;;;;;;;;5083585;28;20024;-67
2021/11/13 02:51:45;;;;;;;12.83;8.50;;;;;;;;;;5084413;28;20099;-67
2021/11/13 02:54:10;;;;;;;12.97;8.63;;;;;;;;;;5088892;28;20020;-68
2021/11/13 02:56:36;;;;;;;11.40;8.13;;;;;;;;;;5083032;28;20020;-68
2021/11/13 02:59:01;;;;;;;12.30;8.80;;;;;;;;;;5091051;28;20021;-68
2021/11/13 03:01:26;;;;;;;12.43;8.70;;;;;;;;;;5087615;28;20055;-68
2021/11/13 03:03:52;;;;;;;10.80;8.57;;;;;;;;;;5087534;28;20024;-68
2021/11/13 03:06:17;;;;;;;14.30;9.30;;;;;;;;;;5092801;28;20020;-68
2021/11/13 03:08:44;;;;;;;12.40;8.90;;;;;;;;;;5087525;28;20028;-68
2021/11/13 03:11:10;;;;;;;15.40;10.10;;;;;;;;;;5103902;28;20027;-68
2021/11/13 03:13:38;;;;;;;15.83;9.90;;;;;;;;;;5102736;28;20039;-68
2021/11/13 03:16:04;;;;;;;14.10;10.05;;;;;;;;;;5091906;28;20473;-68
2021/11/13 03:18:30;;;;;;;16.38;10.40;;;;;;;;;;5090377;28;20499;-67
2021/11/13 03:20:55;;;;;;;14.55;10.32;;;;;;;;;;5107364;28;20024;-67
2021/11/13 03:23:20;;;;;;;13.52;9.50;;;;;;;;;;5081176;28;20564;-67
2021/11/13 03:25:56;;;;;;;13.00;8.63;;;;;;;;;;5077637;28;20020;-67
2021/11/13 03:28:23;;;;;;;11.60;8.05;;;;;;;;;;5087864;28;20445;-68
2021/11/13 03:30:48;;;;;;;11.95;9.40;;;;;;;;;;5092835;28;20035;-68
2021/11/13 03:33:14;;;;;;;14.27;9.77;;;;;;;;;;5107415;28;20027;-68
2021/11/13 03:35:39;;;;;;;14.30;9.50;;;;;;;;;;5092255;28;20020;-68
2021/11/13 03:38:06;;;;;;;14.40;9.45;;;;;;;;;;5076588;28;20079;-68
2021/11/13 03:40:32;;;;;;;14.43;10.38;;;;;;;;;;5086888;28;20038;-68
2021/11/13 03:42:57;;;;;;;14.30;9.60;;;;;;;;;;5095423;28;20028;-68
2021/11/13 03:45:22;;;;;;;13.73;9.45;;;;;;;;;;5092646;28;20130;-68
2021/11/13 03:47:48;;;;;;;12.07;8.48;;;;;;;;;;5091821;28;20035;-69
2021/11/13 03:50:14;;;;;;;11.10;8.45;;;;;;;;;;5097640;28;20143;-68
2021/11/13 03:52:39;;;;;;;12.77;9.13;;;;;;;;;;5084115;28;20024;-68
2021/11/13 03:55:05;;;;;;;10.52;8.05;;;;;;;;;;5079007;28;20017;-68
2021/11/13 03:57:30;;;;;;;10.77;7.13;;;;;;;;;;5079874;28;20023;-68
2021/11/13 03:59:55;;;;;;;9.90;7.03;;;;;;;;;;5071073;28;20052;-68
2021/11/13 04:02:21;;;;;;;10.35;7.07;;;;;;;;;;5088873;28;20040;-68
2021/11/13 04:04:46;;;;;;;9.60;6.90;;;;;;;;;;5082957;28;20036;-68
2021/11/13 04:07:12;;;;;;;9.13;6.88;;;;;;;;;;5076037;28;20170;-68
2021/11/13 04:09:38;;;;;;;10.07;6.97;;;;;;;;;;5095675;28;20034;-68
2021/11/13 04:12:05;;;;;;;9.32;7.15;;;;;;;;;;5093032;28;20064;-68
2021/11/13 04:14:31;;;;;;;10.57;7.40;;;;;;;;;;5101456;28;20399;-68
2021/11/13 04:16:56;;;;;;;13.45;6.97;;;;;;;;;;5115929;28;20080;-68
2021/11/13 04:19:21;;;;;;;11.98;7.43;;;;;;;;;;5098312;28;20032;-68
2021/11/13 04:21:47;;;;;;;11.80;7.38;;;;;;;;;;5086492;28;20391;-68
2021/11/13 04:24:12;;;;;;;9.38;7.25;;;;;;;;;;5099999;28;20471;-68
2021/11/13 04:26:37;;;;;;;9.43;7.43;;;;;;;;;;5094170;28;20024;-68
2021/11/13 04:29:03;;;;;;;9.57;7.10;;;;;;;;;;5089736;28;20042;-68
2021/11/13 04:31:28;;;;;;;10.13;6.97;;;;;;;;;;5093942;28;20416;-68
2021/11/13 04:33:56;;;;;;;10.45;7.00;;;;;;;;;;5094430;28;20039;-68
2021/11/13 04:36:24;;;;;;;11.70;7.55;;;;;;;;;;5094032;28;20032;-69
2021/11/13 04:38:50;;;;;;;7.15;5.55;;;;;;;;;;5090426;28;20036;-68
2021/11/13 04:41:15;;;;;;;8.75;5.72;;;;;;;;;;5095082;28;20024;-68
2021/11/13 04:43:41;;;;;;;7.93;6.45;;;;;;;;;;5099759;28;20022;-68
2021/11/13 04:46:06;;;;;;;7.70;5.53;;;;;;;;;;5097521;28;20036;-68
2021/11/13 04:48:31;;;;;;;7.43;6.45;;;;;;;;;;5094789;28;20035;-69
2021/11/13 04:51:01;;;;;;;9.13;5.57;;;;;;;;;;5083954;28;20456;-69
2021/11/13 04:53:26;;;;;;;8.32;6.03;;;;;;;;;;5086094;28;20123;-70
2021/11/13 04:55:52;;;;;;;9.98;6.00;;;;;;;;;;5084652;28;20047;-69
2021/11/13 04:58:17;;;;;;;6.65;5.50;;;;;;;;;;5089212;28;20085;-69
2021/11/13 05:00:42;;;;;;;7.70;5.22;;;;;;;;;;5086968;28;20028;-69
2021/11/13 05:03:07;;;;;;;8.25;5.72;;;;;;;;;;5093943;28;20035;-69
2021/11/13 05:05:32;;;;;;;7.78;5.13;;;;;;;;;;5098873;28;20065;-69
2021/11/13 05:07:58;;;;;;;7.65;5.35;;;;;;;;;;5096259;28;20393;-69
2021/11/13 05:10:23;;;;;;;6.22;4.63;;;;;;;;;;5095900;28;20507;-68
2021/11/13 05:12:48;;;;;;;7.38;4.85;;;;;;;;;;5099438;28;20085;-69
2021/11/13 05:15:14;;;;;;;8.50;4.78;;;;;;;;;;5094816;28;20031;-69
2021/11/13 05:17:40;;;;;;;6.97;4.82;;;;;;;;;;5100223;28;20018;-69
2021/11/13 05:20:08;;;;;;;7.75;4.97;;;;;;;;;;5093552;28;20020;-69
2021/11/13 05:22:34;;;;;;;6.22;4.57;;;;;;;;;;5082677;28;20395;-69
2021/11/13 05:25:00;;;;;;;5.82;4.20;;;;;;;;;;5080826;28;20028;-69
2021/11/13 05:27:25;;;;;;;6.60;4.43;;;;;;;;;;5093030;28;20048;-69
2021/11/13 05:29:50;;;;;;;5.30;3.65;;;;;;;;;;5093671;28;20016;-69
2021/11/13 05:32:16;;;;;;;6.53;3.80;;;;;;;;;;5074685;28;20070;-69
2021/11/13 05:34:41;;;;;;;6.03;4.00;;;;;;;;;;5091335;28;20047;-70
2021/11/13 05:37:06;;;;;;;4.55;3.40;;;;;;;;;;5097181;28;20101;-70
2021/11/13 05:39:32;;;;;;;5.05;3.20;;;;;;;;;;5075400;28;20054;-70
2021/11/13 05:41:57;;;;;;;5.15;4.03;;;;;;;;;;5093776;28;20020;-69
2021/11/13 05:44:22;;;;;;;4.57;3.10;;;;;;;;;;5092582;28;20369;-69
2021/11/13 05:46:52;;;;;;;5.97;3.75;;;;;;;;;;5088006;28;20372;-69
2021/11/13 05:49:18;;;;;;;3.60;3.03;;;;;;;;;;5114238;28;20036;-68
2021/11/13 05:51:43;;;;;;;5.95;3.88;;;;;;;;;;5078363;28;20028;-69
2021/11/13 05:54:08;;;;;;;5.47;3.70;;;;;;;;;;5093205;28;20476;-69
2021/11/13 05:56:33;;;;;;;5.32;3.10;;;;;;;;;;5085466;28;20052;-69
2021/11/13 05:58:59;;;;;;;5.72;3.33;;;;;;;;;;5073360;28;20441;-68
2021/11/13 06:01:24;;;;;;;4.93;2.97;;;;;;;;;;5081438;28;20101;-69
2021/11/13 06:03:49;;;;;;;4.88;3.10;;;;;;;;;;5074415;28;20066;-68
2021/11/13 06:06:14;;;;;;;3.58;2.75;;;;;;;;;;5073348;28;20035;-68
2021/11/13 06:08:40;;;;;;;4.88;2.42;;;;;;;;;;5074758;28;20021;-69
2021/11/13 06:11:05;;;;;;;5.20;2.72;;;;;;;;;;5091712;28;20503;-69
2021/11/13 06:13:30;;;;;;;3.22;2.25;;;;;;;;;;5095990;28;20072;-69
2021/11/13 06:15:56;;;;;;;5.03;2.33;;;;;;;;;;5073142;28;20090;-69
2021/11/13 06:18:21;;;;;;;3.53;2.75;;;;;;;;;;5079699;28;20016;-69
2021/11/13 06:20:46;;;;;;;3.65;2.58;;;;;;;;;;5092277;28;20069;-69
2021/11/13 06:23:11;;;;;;;3.08;2.30;;;;;;;;;;5078035;28;20170;-70
2021/11/13 06:25:37;;;;;;;3.17;2.20;;;;;;;;;;5072708;28;20032;-69
2021/11/13 06:28:02;;;;;;;4.43;2.47;;;;;;;;;;5078820;28;20552;-69
2021/11/13 06:30:28;;;;;;;3.92;2.35;;;;;;;;;;5072305;28;20020;-69
2021/11/13 06:32:54;;;;;;;2.40;2.13;;;;;;;;;;5073600;28;20024;-69
2021/11/13 06:35:19;;;;;;;4.03;2.72;;;;;;;;;;5080690;28;20027;-69
2021/11/13 06:37:44;;;;;;;2.85;2.20;;;;;;;;;;5080352;28;20457;-68
2021/11/13 06:40:10;;;;;;;2.78;2.05;;;;;;;;;;5098200;28;20114;-68
2021/11/13 06:42:37;;;;;;;3.90;2.20;;;;;;;;;;5103115;28;20024;-68
2021/11/13 06:45:03;;;;;;;2.50;2.00;;;;;;;;;;5080125;28;20477;-68
2021/11/13 06:47:28;;;;;;;2.90;2.28;;;;;;;;;;5075559;28;20020;-67
2021/11/13 06:49:53;;;;;;;4.75;2.53;;;;;;;;;;5074061;28;20034;-68
2021/11/13 06:52:18;;;;;;;3.50;2.70;;;;;;;;;;5067670;28;20161;-69
2021/11/13 06:54:44;;;;;;;3.75;2.58;;;;;;;;;;5080978;28;20032;-69
2021/11/13 06:57:09;;;;;;;4.60;3.00;;;;;;;;;;5091621;28;20024;-69
2021/11/13 06:59:34;;;;;;;3.75;2.55;;;;;;;;;;5106783;28;20016;-69
2021/11/13 07:01:59;;;;;;;2.97;2.70;;;;;;;;;;5077283;28;20388;-69
2021/11/13 07:04:25;;;;;;;4.85;3.40;;;;;;;;;;5090945;28;20028;-69
2021/11/13 07:06:50;;;;;;;4.68;3.40;;;;;;;;;;5091881;28;20099;-69
2021/11/13 07:09:16;;;;;;;4.22;2.95;;;;;;;;;;5092102;28;20029;-69
2021/11/13 07:11:41;;;;;;;7.90;5.45;;;;;;;;;;5090016;28;20110;-69
2021/11/13 07:14:06;;;;;;;5.78;4.07;;;;;;;;;;5092209;28;20023;-70
2021/11/13 07:16:32;;;;;;;5.05;3.38;;;;;;;;;;5067026;28;20473;-69
2021/11/13 07:18:57;;;;;;;4.80;4.20;;;;;;;;;;5085869;28;20027;-69
2021/11/13 07:21:22;;;;;;;7.28;4.40;;;;;;;;;;5084764;28;20266;-69
2021/11/13 07:23:48;;;;;;;6.65;4.70;;;;;;;;;;5074919;28;20028;-70
2021/11/13 07:26:15;;;;;;;6.30;3.83;;;;;;;;;;5087032;28;20114;-69
2021/11/13 07:28:41;;;;;;;3.53;2.90;;;;;;;;;;5086732;28;20048;-69
2021/11/13 07:31:08;;;;;;;3.85;2.90;;;;;;;;;;5085913;28;20024;-69
2021/11/13 07:33:33;;;;;;;5.13;3.22;;;;;;;;;;5084844;28;20039;-68
2021/11/13 07:35:58;;;;;;;5.30;3.35;;;;;;;;;;5086117;28;20024;-69
2021/11/13 07:38:24;;;;;;;4.20;2.72;;;;;;;;;;5083910;28;20035;-69
2021/11/13 07:40:49;;;;;;;3.88;2.97;;;;;;;;;;5089067;28;20285;-68
2021/11/13 07:43:14;;;;;;;6.00;3.47;;;;;;;;;;5089838;28;20114;-69
2021/11/13 07:45:39;;;;;;;6.72;4.20;;;;;;;;;;5090201;28;20047;-70
2021/11/13 07:48:07;;;;;;;6.47;3.88;;;;;;;;;;5091040;28;20380;-69
2021/11/13 07:50:35;;;;;;;6.43;5.05;;;;;;;;;;5090961;28;20056;-70
2021/11/13 07:53:00;;;;;;;5.75;4.72;;;;;;;;;;5077629;28;20026;-69
2021/11/13 07:55:25;;;;;;;7.05;4.78;;;;;;;;;;5087709;28;20388;-70
2021/11/13 07:57:51;;;;;;;6.70;4.93;;;;;;;;;;5089863;28;20008;-70
2021/11/13 08:00:20;;;;;;;5.60;3.65;;;;;;;;;;5087832;28;20016;-69
2021/11/13 08:02:45;;;;;;;4.57;3.88;;;;;;;;;;5087433;28;20024;-70
2021/11/13 08:05:10;;;;;;;4.50;3.45;;;;;;;;;;5088970;28;20272;-70
2021/11/13 08:07:36;;;;;;;5.18;3.10;;;;;;;;;;5089370;28;20032;-69
2021/11/13 08:10:02;;;;;;;6.22;3.70;;;;;;;;;;5089271;28;20028;-69
2021/11/13 08:12:27;;;;;;;3.55;3.10;;;;;;;;;;5088714;28;20461;-69
2021/11/13 08:14:53;;;;;;;5.10;3.30;;;;;;;;;;5089113;28;20051;-70
2021/11/13 08:17:18;;;;;;;5.90;3.70;;;;;;;;;;5090386;28;20015;-69
2021/11/13 08:19:43;;;;;;;5.00;3.47;;;;;;;;;;5090101;28;20469;-69
2021/11/13 08:22:08;;;;;;;5.03;3.35;;;;;;;;;;5077266;28;20480;-69
2021/11/13 08:24:36;;;;;;;3.80;2.90;;;;;;;;;;5085706;28;20032;-70
2021/11/13 08:27:01;;;;;;;5.10;3.13;;;;;;;;;;5089248;28;20044;-70
2021/11/13 08:29:26;;;;;;;3.10;2.80;;;;;;;;;;5088266;28;20082;-70
2021/11/13 08:31:52;;;;;;;4.88;3.20;;;;;;;;;;5089071;28;20107;-68
2021/11/13 08:34:17;;;;;;;3.83;3.10;;;;;;;;;;5089203;28;20440;-70
2021/11/13 08:36:42;;;;;;;5.43;3.30;;;;;;;;;;5089397;28;20016;-69
2021/11/13 08:39:08;;;;;;;4.43;3.10;;;;;;;;;;5089803;28;20357;-70
2021/11/13 08:41:33;;;;;;;5.82;3.33;;;;;;;;;;5088677;28;20039;-70
2021/11/13 08:43:58;;;;;;;4.00;2.85;;;;;;;;;;5086874;28;20452;-69
2021/11/13 08:46:24;;;;;;;3.33;3.03;;;;;;;;;;5089988;28;20031;-70
2021/11/13 08:48:49;;;;;;;5.95;3.65;;;;;;;;;;5089622;28;20016;-69
2021/11/13 08:51:15;;;;;;;3.72;3.20;;;;;;;;;;5082001;28;20024;-69
2021/11/13 08:53:40;;;;;;;5.07;3.55;;;;;;;;;;5073961;28;20039;-69
2021/11/13 08:56:07;;;;;;;5.75;3.70;;;;;;;;;;5087930;28;20016;-69
2021/11/13 08:58:32;;;;;;;4.90;3.25;;;;;;;;;;5088582;28;20074;-68
2021/11/13 09:00:59;;;;;;;5.55;4.22;;;;;;;;;;5088892;28;20070;-68
2021/11/13 09:03:27;;;;;;;5.72;3.72;;;;;;;;;;5088920;28;20024;-69
2021/11/13 09:05:53;;;;;;;4.75;4.18;;;;;;;;;;5087022;28;20016;-68
2021/11/13 09:08:19;;;;;;;4.85;4.03;;;;;;;;;;5088137;28;20040;-69
2021/11/13 09:10:45;;;;;;;5.25;4.10;;;;;;;;;;5088875;28;20031;-69
2021/11/13 09:13:11;;;;;;;4.75;4.00;;;;;;;;;;5070481;28;20492;-69
2021/11/13 09:15:36;;;;;;;3.67;3.28;;;;;;;;;;5089295;28;20103;-69
2021/11/13 09:18:02;;;;;;;5.30;4.13;;;;;;;;;;5088695;28;20024;-69
2021/11/13 09:20:27;;;;;;;4.80;3.63;;;;;;;;;;5086992;28;20421;-69
2021/11/13 09:22:53;;;;;;;4.72;4.07;;;;;;;;;;5075292;28;20483;-69
2021/11/13 09:25:18;;;;;;;6.43;3.83;;;;;;;;;;5085432;28;20476;-69
2021/11/13 09:27:44;;;;;;;5.18;4.07;;;;;;;;;;5085076;28;20048;-69
2021/11/13 09:30:23;;;;;;;6.85;4.68;;;;;;;;;;5087891;28;20078;-69
2021/11/13 09:32:49;;;;;;;6.18;4.88;;;;;;;;;;5086513;28;20063;-69
2021/11/13 09:35:16;;;;;;;5.53;4.50;;;;;;;;;;5086423;28;20070;-69
2021/11/13 09:37:41;;;;;;;8.20;4.85;;;;;;;;;;5090028;28;20035;-69
2021/11/13 09:40:07;;;;;;;8.23;5.55;;;;;;;;;;5085678;28;20035;-69
2021/11/13 09:42:32;;;;;;;7.47;4.82;;;;;;;;;;5084465;28;20375;-69
2021/11/13 09:44:58;;;;;;;6.38;4.38;;;;;;;;;;5087499;28;20027;-69
2021/11/13 09:47:24;;;;;;;7.00;5.20;;;;;;;;;;5088174;28;20047;-69
2021/11/13 09:49:49;;;;;;;5.18;4.20;;;;;;;;;;5085535;28;20023;-68
2021/11/13 09:52:15;;;;;;;6.35;4.57;;;;;;;;;;5074076;28;20060;-69
2021/11/13 09:54:41;;;;;;;6.07;4.45;;;;;;;;;;5084335;28;20024;-69
2021/11/13 09:57:07;;;;;;;7.32;4.55;;;;;;;;;;5088427;28;20117;-69
2021/11/13 09:59:32;;;;;;;6.95;4.50;;;;;;;;;;5087597;28;20035;-69
2021/11/13 10:01:57;;;;;;;5.03;3.92;;;;;;;;;;5086505;28;20065;-69
2021/11/13 10:04:24;;;;;;;6.40;4.00;;;;;;;;;;5086997;28;20036;-69
2021/11/13 10:06:49;;;;;;;6.93;4.10;;;;;;;;;;5087855;28;20024;-69
2021/11/13 10:09:15;;;;;;;4.90;4.10;;;;;;;;;;5086512;28;20028;-69
2021/11/13 10:11:43;;;;;;;6.28;4.05;;;;;;;;;;5084757;28;20028;-69
2021/11/13 10:14:10;;;;;;;6.25;4.43;;;;;;;;;;5087163;28;20476;-69
2021/11/13 10:16:38;;;;;;;5.30;4.15;;;;;;;;;;5070077;28;20095;-69
2021/11/13 10:19:10;;;;;;;8.45;4.60;;;;;;;;;;5087728;28;20020;-69
2021/11/13 10:21:37;;;;;;;5.53;4.10;;;;;;;;;;5080289;28;20023;-69
2021/11/13 10:24:13;;;;;;;6.15;4.53;;;;;;;;;;5086305;28;20023;-69
2021/11/13 10:26:39;;;;;;;5.50;4.45;;;;;;;;;;5087635;28;20050;-69
2021/11/13 10:29:13;;;;;;;6.53;4.15;;;;;;;;;;5086410;28;20020;-69
2021/11/13 10:31:42;;;;;;;5.30;3.97;;;;;;;;;;5081204;28;20988;-69
2021/11/13 10:34:10;;;;;;;7.20;5.13;;;;;;;;;;5086315;28;20027;-69
2021/11/13 10:36:40;;;;;;;6.18;4.70;;;;;;;;;;5087255;28;20103;-69
2021/11/13 10:39:08;;;;;;;6.72;4.35;;;;;;;;;;5087918;28;20488;-69
2021/11/13 10:41:52;;;;;;;6.15;3.95;;;;;;;;;;5087134;28;20044;-69
2021/11/13 10:44:22;;;;;;;6.88;4.50;;;;;;;;;;5087211;28;20147;-70
2021/11/13 10:46:47;;;;;;;6.63;5.00;;;;;;;;;;5086284;28;20024;-69
2021/11/13 10:49:13;;;;;;;5.80;4.38;;;;;;;;;;5086817;28;20023;-69
2021/11/13 10:51:38;;;;;;;7.00;4.68;;;;;;;;;;5079915;28;20117;-69
2021/11/13 10:54:09;;;;;;;6.72;4.88;;;;;;;;;;5085299;28;20031;-69
2021/11/13 10:56:44;;;;;;;8.48;4.68;;;;;;;;;;5085626;28;20024;-69
2021/11/13 10:59:09;;;;;;;6.35;4.90;;;;;;;;;;5087874;28;20035;-69
2021/11/13 11:01:39;;;;;;;7.43;4.80;;;;;;;;;;5086559;28;20024;-69
2021/11/13 11:04:09;;;;;;;6.68;4.85;;;;;;;;;;5086367;28;20085;-69
2021/11/13 11:06:38;;;;;;;5.82;4.68;;;;;;;;;;5087187;28;20785;-69
2021/11/13 11:09:16;;;;;;;5.10;4.00;;;;;;;;;;5086627;28;20099;-72
2021/11/13 11:11:41;;;;;;;4.82;3.45;;;;;;;;;;5086583;28;20227;-68
2021/11/13 11:14:13;;;;;;;5.25;3.70;;;;;;;;;;5085835;28;20035;-69
2021/11/13 11:16:46;;;;;;;5.75;3.55;;;;;;;;;;5086616;28;20521;-69
2021/11/13 11:19:13;;;;;;;3.97;3.00;;;;;;;;;;5086842;28;20028;-69
2021/11/13 11:21:49;;;;;;;3.80;2.70;;;;;;;;;;5082006;28;20487;-69
2021/11/13 11:24:14;;;;;;;3.85;3.05;;;;;;;;;;5084461;28;20028;-68
2021/11/13 11:26:40;;;;;;;3.38;2.25;;;;;;;;;;5086793;28;20444;-69
2021/11/13 11:29:06;;;;;;;3.90;2.75;;;;;;;;;;5084651;28;20403;-69
2021/11/13 11:31:39;;;;;;;2.67;2.30;;;;;;;;;;5085947;28;20020;-69
2021/11/13 11:34:04;;;;;;;3.75;2.30;;;;;;;;;;5085440;28;20035;-70
2021/11/13 11:36:30;;;;;;;3.92;2.60;;;;;;;;;;5086287;28;20012;-70
2021/11/13 11:38:55;;;;;;;6.68;3.83;;;;;;;;;;5084149;28;20192;-70
2021/11/13 11:41:21;;;;;;;3.33;2.78;;;;;;;;;;5087293;28;20020;-69
2021/11/13 11:43:46;;;;;;;4.78;3.60;;;;;;;;;;5086046;28;20071;-70
2021/11/13 11:46:11;;;;;;;5.90;3.63;;;;;;;;;;5086863;28;20024;-70
2021/11/13 11:48:36;;;;;;;3.25;2.55;;;;;;;;;;5087162;28;20039;-70
2021/11/13 11:51:02;;;;;;;4.47;3.58;;;;;;;;;;5085738;28;20028;-70
2021/11/13 11:53:28;;;;;;;3.80;3.15;;;;;;;;;;5080774;28;20563;-70
2021/11/13 11:55:54;;;;;;;5.20;2.95;;;;;;;;;;5084677;28;20043;-68
2021/11/13 11:58:23;;;;;;;4.22;3.38;;;;;;;;;;5083875;28;20468;-69
2021/11/13 12:00:50;;;;;;;4.75;3.15;;;;;;;;;;5085140;28;20115;-69
2021/11/13 12:03:23;;;;;;;4.30;3.45;;;;;;;;;;5084466;28;20055;-69
2021/11/13 12:05:50;;;;;;;5.47;3.58;;;;;;;;;;5084364;28;20059;-68
2021/11/13 12:08:17;;;;;;;7.00;5.00;;;;;;;;;;5085143;28;20032;-68
2021/11/13 12:10:44;;;;;;;6.63;4.78;;;;;;;;;;5085424;28;20024;-68
2021/11/13 12:13:10;;;;;;;5.53;4.60;;;;;;;;;;5081962;28;20463;-68
2021/11/13 12:15:49;;;;;;;5.68;4.13;;;;;;;;;;5085923;28;20047;-68
2021/11/13 12:18:16;;;;;;;3.97;3.58;;;;;;;;;;5085897;28;20016;-69
2021/11/13 12:20:41;;;;;;;5.70;4.10;;;;;;;;;;5085668;28;20032;-67
2021/11/13 12:23:10;;;;;;;4.90;3.17;;;;;;;;;;5078574;28;20035;-68
2021/11/13 12:25:37;;;;;;;9.18;3.67;;;;;;;;;;5087087;28;20031;-68
2021/11/13 12:28:19;;;;;;;4.95;3.05;;;;;;;;;;5089001;28;20112;-68
2021/11/13 12:30:50;;;;;;;4.72;3.45;;;;;;;;;;5088591;28;20020;-68
2021/11/13 12:33:24;;;;;;;3.55;3.25;;;;;;;;;;5089758;28;20426;-68
2021/11/13 12:35:50;;;;;;;4.30;3.20;;;;;;;;;;5089822;28;20078;-68
2021/11/13 12:38:30;;;;;;;5.95;3.60;;;;;;;;;;5089693;28;20397;-68
2021/11/13 12:41:14;;;;;;;4.30;3.38;;;;;;;;;;5089798;28;20024;-68
2021/11/13 12:43:55;;;;;;;5.18;3.55;;;;;;;;;;5090287;28;20538;-67
2021/11/13 12:46:37;;;;;;;4.97;4.05;;;;;;;;;;5090336;28;20082;-68
2021/11/13 12:49:18;;;;;;;7.28;3.72;;;;;;;;;;5088347;28;20697;-68
2021/11/13 12:52:00;;;;;;;5.03;3.35;;;;;;;;;;5084367;28;20028;-68
2021/11/13 12:54:28;;;;;;;3.92;3.47;;;;;;;;;;5088622;28;20076;-75
2021/11/13 12:57:13;;;;;;;5.60;3.60;;;;;;;;;;5089981;28;20023;-78
2021/11/13 12:59:38;;;;;;;;;;;;;;;;;;5090313;28;20051;-78
2021/11/13 13:02:06;;;;;;;3.80;3.40;;;;;;;;;;5088016;28;20390;-79
2021/11/13 13:04:36;;;;;;;7.72;3.60;;;;;;;;;;5089607;28;20024;-77
2021/11/13 13:07:02;;;;;;;4.78;4.05;;;;;;;;;;5089318;28;20504;-77
2021/11/13 13:09:29;;;;;;;4.57;3.92;;;;;;;;;;5086750;28;20033;-78
2021/11/13 13:11:58;;;;;;;4.55;3.00;;;;;;;;;;5088926;28;20032;-79
2021/11/13 13:14:34;;;;;;;4.07;3.63;;;;;;;;;;5087061;28;20713;-78
2021/11/13 13:17:00;;;;;;;4.60;4.07;;;;;;;;;;5087341;28;20020;-78
2021/11/13 13:19:33;;;;;;;4.88;3.58;;;;;;;;;;5068039;28;20085;-78
2021/11/13 13:21:58;;;;;;;3.58;3.22;;;;;;;;;;5081110;28;20034;-78
2021/11/13 13:24:23;;;;;;;3.97;3.58;;;;;;;;;;5085251;28;20016;-79
2021/11/13 13:26:49;;;;;;;5.07;3.58;;;;;;;;;;5087344;28;20273;-78
2021/11/13 13:29:16;;;;;;;4.90;3.85;;;;;;;;;;5071473;28;20024;-78
2021/11/13 13:31:54;;;;;;;3.73;3.43;;;;;;;;;;5088522;28;20571;-78
2021/11/13 13:34:19;;;;;;;5.88;3.72;;;;;;;;;;5087874;28;20392;-78
2021/11/13 13:36:46;;;;;;;3.70;3.40;;;;;;;;;;5087812;28;20035;-78
2021/11/13 13:39:11;;;;;;;4.63;3.20;;;;;;;;;;5087231;28;20055;-77
2021/11/13 13:41:39;;;;;;;5.28;3.60;;;;;;;;;;5084549;28;20106;-78
2021/11/13 13:44:04;;;;;;;4.38;3.50;;;;;;;;;;5088704;28;20072;-78
2021/11/13 13:46:37;;;;;;;4.25;3.85;;;;;;;;;;5071077;28;20035;-78
2021/11/13 13:49:05;;;;;;;4.20;3.80;;;;;;;;;;5088026;28;20028;-78
2021/11/13 13:51:43;;;;;;;4.00;3.47;;;;;;;;;;5083686;28;20481;-79
2021/11/13 13:54:09;;;;;;;4.10;3.53;;;;;;;;;;5085859;28;20107;-78
2021/11/13 13:56:34;;;;;;;5.03;4.18;;;;;;;;;;5088015;28;20386;-78
2021/11/13 13:59:01;;;;;;;4.07;3.60;;;;;;;;;;5086301;28;20111;-77
2021/11/13 14:01:27;;;;;;;4.78;3.88;;;;;;;;;;5086271;28;20488;-77
2021/11/13 14:03:54;;;;;;;4.53;3.80;;;;;;;;;;5086402;28;20031;-76
2021/11/13 14:06:22;;;;;;;5.25;4.20;;;;;;;;;;5087938;28;20057;-77
2021/11/13 14:08:48;;;;;;;5.80;5.20;;;;;;;;;;5087596;28;20122;-76
2021/11/13 14:11:20;;;;;;;5.65;5.15;;;;;;;;;;5069534;28;20404;-76
2021/11/13 14:13:45;;;;;;;7.03;6.05;;;;;;;;;;5087803;28;20028;-77
2021/11/13 14:16:10;;;;;;;6.35;5.75;;;;;;;;;;5085712;28;20027;-77
2021/11/13 14:18:37;;;;;;;7.15;6.20;;;;;;;;;;5088656;28;20032;-77
2021/11/13 14:21:06;;;;;;;6.40;5.78;;;;;;;;;;5087594;28;21285;-77
2021/11/13 14:23:33;;;;;;;6.90;4.72;;;;;;;;;;5063020;28;20181;-79
2021/11/13 14:26:00;;;;;;;5.88;4.78;;;;;;;;;;5086929;28;20024;-77
2021/11/13 14:28:27;;;;;;;5.15;4.45;;;;;;;;;;5086028;28;20050;-77
2021/11/13 14:30:52;;;;;;;5.47;4.13;;;;;;;;;;5086690;28;20121;-75
2021/11/13 14:33:18;;;;;;;5.20;4.20;;;;;;;;;;5085844;28;20081;-77